Terminal Aerodrome Forecast
Issued by NWS

Home | Current Version | Previous Version | Text Only | Print | Product List | Glossary On
Versions: 1 2 3 4 5 6 7 8 9 10 11 12 13 14 15 16 17 18
000
FTUS43 KSGF 021100
TAFJLN
TAF
KJLN 021120Z 0212/0312 10005KT P6SM BKN006
      TEMPO 0212/0214 6SM BR
     FM021500 14007KT P6SM BKN015
     FM021800 15007KT P6SM SCT040
     FM030000 14006KT P6SM BKN250=

USA.gov is the U.S. government's official web portal to all federal, state and local government web resources and services.